Time;durP1;ratioP1;P1;durP2;ratioP2;P2;SDS_P1;SDS_P2;PMS_P1;PMS_P2;Temp;Humidity;BMP_temperature;BMP_pressure;BME280_temperature;BME280_humidity;BME280_pressure;Samples;Min_cycle;Max_cycle;Signal;HPM_P1;HPM_P2
2023/10/06 00:02:30;;;;;;;0.10;0.10;;;21.40;46.70;;;;;;5040249;28;20305;-44
2023/10/06 00:05:01;;;;;;;0.00;0.00;;;21.40;46.60;;;;;;5051886;28;20287;-47
2023/10/06 00:07:34;;;;;;;0.10;0.10;;;21.40;46.50;;;;;;5051387;28;20210;-45
2023/10/06 00:10:13;;;;;;;0.10;0.10;;;21.50;46.50;;;;;;5051860;28;20191;-50
2023/10/06 00:12:47;;;;;;;0.10;0.10;;;21.50;46.50;;;;;;5051973;28;20274;-47
2023/10/06 00:15:23;;;;;;;0.10;0.10;;;21.50;46.40;;;;;;5051547;28;20213;-51
2023/10/06 00:17:56;;;;;;;0.00;0.00;;;21.50;46.40;;;;;;5035195;28;20200;-44
2023/10/06 00:20:38;;;;;;;0.10;0.10;;;21.50;46.40;;;;;;5046216;28;20200;-54
2023/10/06 00:23:14;;;;;;;0.10;0.10;;;21.50;46.40;;;;;;5030172;28;20209;-53
2023/10/06 00:25:45;;;;;;;0.10;0.10;;;21.50;46.40;;;;;;5029635;28;20191;-56
2023/10/06 00:28:19;;;;;;;0.10;0.10;;;21.50;46.30;;;;;;5051004;28;20211;-55
2023/10/06 00:30:55;;;;;;;0.10;0.10;;;21.60;46.30;;;;;;5052127;28;20199;-58
2023/10/06 00:33:27;;;;;;;0.10;0.10;;;21.60;46.10;;;;;;5050826;28;20223;-57
2023/10/06 00:35:58;;;;;;;0.00;0.00;;;21.60;46.10;;;;;;5051958;28;20192;-53
2023/10/06 00:38:31;;;;;;;0.10;0.10;;;21.60;46.00;;;;;;5051107;28;20199;-59
2023/10/06 00:41:06;;;;;;;0.10;0.10;;;21.60;46.00;;;;;;5051360;28;20305;-57
2023/10/06 00:43:39;;;;;;;0.00;0.00;;;21.70;46.00;;;;;;5051324;28;20383;-54
2023/10/06 00:46:10;;;;;;;0.10;0.10;;;21.70;46.00;;;;;;5036752;28;20242;-56
2023/10/06 00:48:41;;;;;;;0.00;0.00;;;21.70;46.00;;;;;;5031303;28;20284;-54
2023/10/06 00:51:19;;;;;;;0.10;0.10;;;21.70;45.90;;;;;;5041230;28;20198;-59
2023/10/06 00:53:52;;;;;;;0.08;0.08;;;21.70;45.80;;;;;;5030730;28;20612;-48
2023/10/06 00:56:25;;;;;;;0.10;0.10;;;21.70;45.80;;;;;;5042618;28;20619;-51
2023/10/06 00:58:56;;;;;;;0.10;0.10;;;21.70;45.80;;;;;;5030897;28;20583;-50
2023/10/06 01:01:26;;;;;;;0.10;0.10;;;21.80;45.90;;;;;;5017377;28;20231;-49
2023/10/06 01:04:06;;;;;;;0.10;0.10;;;21.80;46.00;;;;;;5031203;28;20220;-47
2023/10/06 01:06:42;;;;;;;0.10;0.10;;;21.80;45.90;;;;;;5030428;28;20188;-52
2023/10/06 01:09:15;;;;;;;0.10;0.10;;;21.80;46.00;;;;;;5048122;28;20205;-54
2023/10/06 01:11:48;;;;;;;0.00;0.00;;;21.80;46.00;;;;;;5047517;28;20234;-52
2023/10/06 01:14:21;;;;;;;0.10;0.10;;;21.80;46.10;;;;;;5020388;28;20221;-47
2023/10/06 01:16:53;;;;;;;0.10;0.10;;;21.80;45.90;;;;;;5042073;28;20207;-55
2023/10/06 01:19:28;;;;;;;0.10;0.10;;;21.80;45.90;;;;;;5030618;28;20211;-53
2023/10/06 01:22:05;;;;;;;0.10;0.10;;;21.90;46.00;;;;;;5033712;28;20218;-45
2023/10/06 01:24:38;;;;;;;0.00;0.00;;;21.90;45.90;;;;;;5049388;28;20211;-45
2023/10/06 01:27:10;;;;;;;0.10;0.10;;;21.90;45.90;;;;;;5020956;28;20196;-44
2023/10/06 01:29:42;;;;;;;0.00;0.00;;;21.90;45.90;;;;;;5030106;28;20193;-50
2023/10/06 01:32:15;;;;;;;0.10;0.10;;;21.90;45.90;;;;;;5030734;28;20405;-45
2023/10/06 01:34:46;;;;;;;0.10;0.10;;;21.90;45.80;;;;;;5029101;28;20568;-49
2023/10/06 01:37:17;;;;;;;0.00;0.00;;;21.90;45.70;;;;;;5024730;28;20273;-53
2023/10/06 01:39:51;;;;;;;0.00;0.00;;;21.90;45.70;;;;;;5010130;28;20228;-49
2023/10/06 01:42:24;;;;;;;0.10;0.10;;;22.00;45.70;;;;;;5020096;28;20392;-58
2023/10/06 01:45:02;;;;;;;0.00;0.00;;;22.00;45.80;;;;;;5044191;28;20629;-56
2023/10/06 01:47:33;;;;;;;0.10;0.10;;;22.00;45.80;;;;;;5039925;28;20242;-47
2023/10/06 01:50:05;;;;;;;0.00;0.00;;;22.00;45.70;;;;;;5034191;28;20200;-47
2023/10/06 01:52:39;;;;;;;0.10;0.10;;;22.00;45.60;;;;;;5043204;28;20219;-52
2023/10/06 01:55:18;;;;;;;0.00;0.00;;;22.00;45.40;;;;;;5014894;28;20197;-56
2023/10/06 01:57:49;;;;;;;0.03;0.03;;;22.00;45.10;;;;;;5024009;28;20192;-52
2023/10/06 02:00:26;;;;;;;0.00;0.00;;;22.00;45.20;;;;;;5034008;28;20278;-54
2023/10/06 02:02:57;;;;;;;0.00;0.00;;;22.00;45.00;;;;;;5035050;28;20223;-46
2023/10/06 02:05:27;;;;;;;0.00;0.00;;;22.00;44.80;;;;;;5054098;28;20205;-50
2023/10/06 02:08:00;;;;;;;0.03;0.03;;;22.00;44.70;;;;;;5037090;28;20197;-52
2023/10/06 02:10:33;;;;;;;0.10;0.10;;;22.00;44.60;;;;;;5013146;28;20707;-46
2023/10/06 02:13:04;;;;;;;0.10;0.10;;;22.00;44.60;;;;;;5024083;28;20248;-44
2023/10/06 02:15:35;;;;;;;0.10;0.10;;;22.10;44.60;;;;;;5040012;28;20671;-51
2023/10/06 02:18:12;;;;;;;0.10;0.10;;;22.10;44.60;;;;;;5034465;28;20192;-46
2023/10/06 02:20:46;;;;;;;0.10;0.10;;;22.10;44.60;;;;;;5028717;28;20276;-54
2023/10/06 02:23:16;;;;;;;0.10;0.10;;;22.10;44.40;;;;;;5025076;28;20223;-56
2023/10/06 02:25:49;;;;;;;0.00;0.00;;;22.10;44.40;;;;;;5037480;28;20188;-50
2023/10/06 02:28:20;;;;;;;0.10;0.10;;;22.10;44.30;;;;;;5045378;28;20200;-51
2023/10/06 02:30:54;;;;;;;0.00;0.00;;;22.10;44.40;;;;;;5053413;28;20206;-52
2023/10/06 02:33:25;;;;;;;0.00;0.00;;;22.10;44.30;;;;;;5052991;28;20216;-54
2023/10/06 02:35:56;;;;;;;0.10;0.10;;;22.10;44.50;;;;;;5052716;28;20195;-50
2023/10/06 02:38:46;;;;;;;0.10;0.10;;;22.10;44.50;;;;;;5052140;28;20693;-52
2023/10/06 02:41:25;;;;;;;0.10;0.10;;;22.10;44.40;;;;;;5051288;28;20249;-54
2023/10/06 02:44:05;;;;;;;0.10;0.10;;;22.10;44.30;;;;;;5053804;28;20273;-54
2023/10/06 02:46:36;;;;;;;0.10;0.10;;;22.10;44.10;;;;;;5047706;28;20196;-52
2023/10/06 02:49:09;;;;;;;0.10;0.10;;;22.10;43.30;;;;;;5033326;28;20455;-58
2023/10/06 02:51:47;;;;;;;0.10;0.10;;;22.10;43.00;;;;;;5033883;28;20283;-49
2023/10/06 02:54:27;;;;;;;0.10;0.10;;;22.10;42.80;;;;;;5032840;28;20204;-50
2023/10/06 02:57:04;;;;;;;0.10;0.10;;;22.10;42.60;;;;;;5038341;28;20200;-58
2023/10/06 02:59:36;;;;;;;0.10;0.10;;;22.10;42.20;;;;;;5025396;28;20232;-50
2023/10/06 03:02:15;;;;;;;0.00;0.00;;;22.10;42.00;;;;;;5031944;28;20933;-46
2023/10/06 03:04:53;;;;;;;0.10;0.10;;;22.00;41.80;;;;;;5026282;28;20196;-53
2023/10/06 03:07:25;;;;;;;0.10;0.10;;;22.10;41.80;;;;;;5024810;28;20195;-58
2023/10/06 03:09:55;;;;;;;0.10;0.10;;;22.10;41.80;;;;;;5040577;28;20675;-54
2023/10/06 03:12:31;;;;;;;0.10;0.10;;;22.10;42.00;;;;;;5032939;28;20189;-55
2023/10/06 03:15:02;;;;;;;0.00;0.00;;;22.10;42.20;;;;;;5032592;28;20196;-57
2023/10/06 03:17:34;;;;;;;0.10;0.10;;;22.00;42.30;;;;;;5032706;28;20237;-58
2023/10/06 03:20:11;;;;;;;0.10;0.10;;;22.00;42.30;;;;;;5012567;28;20193;-49
2023/10/06 03:22:43;;;;;;;0.03;0.03;;;22.00;42.50;;;;;;5033775;28;20227;-58
2023/10/06 03:25:17;;;;;;;0.10;0.10;;;22.00;42.50;;;;;;5032692;28;20246;-54
2023/10/06 03:27:52;;;;;;;0.10;0.10;;;22.00;42.50;;;;;;5034838;28;20430;-56
2023/10/06 03:30:27;;;;;;;0.05;0.05;;;22.00;42.60;;;;;;5052450;28;20738;-57
2023/10/06 03:32:58;;;;;;;0.05;0.05;;;22.00;42.50;;;;;;5039263;28;20215;-56
2023/10/06 03:35:45;;;;;;;0.00;0.00;;;22.00;42.20;;;;;;5052007;28;20211;-48
2023/10/06 03:43:51;;;;;;;0.10;0.10;;;22.00;41.40;;;;;;5020720;28;20692;-57
2023/10/06 03:46:23;;;;;;;0.08;0.08;;;22.00;41.20;;;;;;5016819;28;20283;-55
2023/10/06 03:48:55;;;;;;;0.03;0.03;;;22.00;41.20;;;;;;5032167;28;20188;-57
2023/10/06 03:51:26;;;;;;;0.10;0.10;;;22.00;41.20;;;;;;5031013;28;20210;-52
2023/10/06 03:53:57;;;;;;;0.08;0.08;;;22.00;41.50;;;;;;5049237;28;20255;-53
2023/10/06 03:56:27;;;;;;;0.10;0.10;;;22.00;41.20;;;;;;5049772;28;20196;-45
2023/10/06 03:59:01;;;;;;;0.10;0.10;;;22.10;41.30;;;;;;5019793;28;20203;-52
2023/10/06 04:01:33;;;;;;;0.08;0.08;;;22.10;41.40;;;;;;5020799;28;20699;-47
2023/10/06 04:04:04;;;;;;;0.00;0.00;;;22.10;41.60;;;;;;5031755;28;20706;-50
2023/10/06 04:06:35;;;;;;;0.00;0.00;;;22.10;41.70;;;;;;5033978;28;20192;-55
2023/10/06 04:09:05;;;;;;;0.00;0.00;;;22.10;41.80;;;;;;5043246;28;20191;-50
2023/10/06 04:11:36;;;;;;;0.10;0.10;;;22.10;41.90;;;;;;5048790;28;20217;-48
2023/10/06 04:14:09;;;;;;;0.10;0.10;;;22.10;41.90;;;;;;5031657;28;20223;-46
2023/10/06 04:16:45;;;;;;;0.00;0.00;;;22.10;42.00;;;;;;5029729;28;20199;-52
2023/10/06 04:19:17;;;;;;;0.10;0.10;;;22.10;42.20;;;;;;5029173;28;20200;-47
2023/10/06 04:21:47;;;;;;;0.10;0.10;;;22.10;42.10;;;;;;5034058;28;20224;-50
2023/10/06 04:24:18;;;;;;;0.03;0.03;;;22.20;42.30;;;;;;5030528;28;20270;-51
2023/10/06 04:26:49;;;;;;;0.10;0.10;;;22.20;42.20;;;;;;5030707;28;20254;-46
2023/10/06 04:29:25;;;;;;;0.00;0.00;;;22.20;42.20;;;;;;5040281;28;20204;-52
2023/10/06 04:31:56;;;;;;;0.10;0.10;;;22.20;42.20;;;;;;5044846;28;20234;-44
2023/10/06 04:34:35;;;;;;;0.00;0.00;;;22.20;42.30;;;;;;5042096;28;20224;-55
2023/10/06 04:37:07;;;;;;;0.10;0.10;;;22.30;42.40;;;;;;5046039;28;20220;-56
2023/10/06 04:39:39;;;;;;;0.10;0.10;;;22.30;42.40;;;;;;5011715;28;20232;-54
2023/10/06 04:42:10;;;;;;;0.00;0.00;;;22.30;42.50;;;;;;5037098;28;20220;-51
2023/10/06 04:44:44;;;;;;;0.00;0.00;;;22.30;42.50;;;;;;5011642;28;20220;-53
2023/10/06 04:47:15;;;;;;;0.10;0.10;;;22.30;42.50;;;;;;5034640;28;20200;-56
2023/10/06 04:49:47;;;;;;;0.00;0.00;;;22.40;42.60;;;;;;5029785;28;20203;-55
2023/10/06 04:52:17;;;;;;;0.10;0.10;;;22.40;42.60;;;;;;5029926;28;20640;-57
2023/10/06 04:54:48;;;;;;;0.10;0.10;;;22.40;42.60;;;;;;5047598;28;20207;-53
2023/10/06 04:57:19;;;;;;;0.00;0.00;;;22.40;42.60;;;;;;5018593;28;20188;-57
2023/10/06 04:59:51;;;;;;;0.00;0.00;;;22.40;42.60;;;;;;5031513;28;20266;-58
2023/10/06 05:02:23;;;;;;;0.10;0.10;;;22.40;42.60;;;;;;5028652;28;20715;-54
2023/10/06 05:04:54;;;;;;;0.10;0.10;;;22.50;42.60;;;;;;5034414;28;20200;-55
2023/10/06 05:07:25;;;;;;;0.10;0.10;;;22.50;42.50;;;;;;5043343;28;20196;-58
2023/10/06 05:09:56;;;;;;;0.10;0.10;;;22.50;42.50;;;;;;5026756;28;20191;-57
2023/10/06 05:12:26;;;;;;;0.10;0.10;;;22.50;42.40;;;;;;5044069;28;20279;-57
2023/10/06 05:14:59;;;;;;;0.03;0.03;;;22.60;42.50;;;;;;5029672;28;20204;-49
2023/10/06 05:17:30;;;;;;;0.10;0.10;;;22.60;42.50;;;;;;5031322;28;20203;-53
2023/10/06 05:20:00;;;;;;;0.10;0.10;;;22.60;42.50;;;;;;5028636;28;20211;-58
2023/10/06 05:22:31;;;;;;;0.00;0.00;;;22.60;42.50;;;;;;5027375;28;20224;-58
2023/10/06 05:25:03;;;;;;;0.10;0.10;;;22.60;42.50;;;;;;5030612;28;20192;-58
2023/10/06 05:27:34;;;;;;;0.10;0.10;;;22.70;42.70;;;;;;5036278;28;20249;-57
2023/10/06 05:30:06;;;;;;;0.00;0.00;;;22.70;42.70;;;;;;5049732;28;20203;-55
2023/10/06 05:32:41;;;;;;;0.00;0.00;;;22.70;42.60;;;;;;5037569;28;20224;-57
2023/10/06 05:35:14;;;;;;;0.10;0.10;;;22.70;42.60;;;;;;5042491;28;20720;-53
2023/10/06 05:37:46;;;;;;;0.10;0.10;;;22.70;42.70;;;;;;5026725;28;20279;-52
2023/10/06 05:40:20;;;;;;;0.10;0.10;;;22.70;42.70;;;;;;5029715;28;20609;-55
2023/10/06 05:42:51;;;;;;;0.00;0.00;;;22.70;42.50;;;;;;5039788;28;20231;-51
2023/10/06 05:45:23;;;;;;;0.10;0.10;;;22.80;42.70;;;;;;5030609;28;20235;-54
2023/10/06 05:47:57;;;;;;;0.10;0.10;;;22.80;42.70;;;;;;5030511;28;20192;-52
2023/10/06 05:50:29;;;;;;;0.00;0.00;;;22.80;42.60;;;;;;5019341;28;20275;-54
2023/10/06 05:53:03;;;;;;;0.10;0.10;;;22.80;42.80;;;;;;5018094;28;20688;-57
2023/10/06 05:55:34;;;;;;;0.10;0.10;;;22.80;42.80;;;;;;5049226;28;20652;-57
2023/10/06 05:58:09;;;;;;;0.05;0.05;;;22.80;42.70;;;;;;5037773;28;20285;-55
2023/10/06 06:00:50;;;;;;;0.00;0.00;;;22.80;42.80;;;;;;5050802;28;20269;-58
2023/10/06 06:03:23;;;;;;;0.08;0.08;;;22.80;42.70;;;;;;5030831;28;20243;-58
2023/10/06 06:05:57;;;;;;;0.00;0.00;;;22.80;42.70;;;;;;5037152;28;20195;-54
2023/10/06 06:08:30;;;;;;;0.00;0.00;;;22.80;42.60;;;;;;5037542;28;20196;-58
2023/10/06 06:11:01;;;;;;;0.10;0.10;;;22.80;42.50;;;;;;5037981;28;20199;-58
2023/10/06 06:13:31;;;;;;;0.03;0.03;;;22.80;42.50;;;;;;5038936;28;20219;-55
2023/10/06 06:16:05;;;;;;;0.10;0.10;;;22.90;42.70;;;;;;5021834;28;20209;-57
2023/10/06 06:18:42;;;;;;;0.00;0.00;;;22.80;42.80;;;;;;5029806;28;20605;-56
2023/10/06 06:21:16;;;;;;;0.10;0.10;;;22.90;42.70;;;;;;5030401;28;20354;-56
2023/10/06 06:23:47;;;;;;;0.05;0.05;;;22.90;42.70;;;;;;5030042;28;20223;-51
2023/10/06 06:26:18;;;;;;;0.10;0.10;;;22.90;42.70;;;;;;5028532;28;20242;-53
2023/10/06 06:28:49;;;;;;;0.00;0.00;;;22.90;42.80;;;;;;5030290;28;20283;-56
2023/10/06 06:31:21;;;;;;;0.10;0.10;;;22.80;42.70;;;;;;5049452;28;20199;-55
2023/10/06 06:33:56;;;;;;;0.10;0.10;;;22.90;42.70;;;;;;5053907;28;20219;-55
2023/10/06 06:36:26;;;;;;;0.10;0.10;;;22.90;42.70;;;;;;5054060;28;20283;-56
2023/10/06 06:38:58;;;;;;;0.00;0.00;;;22.90;42.70;;;;;;5054482;28;20369;-58
2023/10/06 06:41:28;;;;;;;0.00;0.00;;;22.80;42.70;;;;;;5050515;28;20200;-57
2023/10/06 06:44:00;;;;;;;0.00;0.00;;;22.80;42.70;;;;;;5045007;28;20223;-56
2023/10/06 06:46:33;;;;;;;0.00;0.00;;;22.80;42.80;;;;;;5034448;28;20674;-52
2023/10/06 06:49:04;;;;;;;0.00;0.00;;;22.80;42.80;;;;;;5036565;28;20539;-58
2023/10/06 06:51:37;;;;;;;0.00;0.00;;;22.80;42.80;;;;;;5032986;28;20218;-58
2023/10/06 06:54:10;;;;;;;0.00;0.00;;;22.80;42.90;;;;;;5038846;28;20590;-58
2023/10/06 06:56:40;;;;;;;0.00;0.00;;;22.80;42.80;;;;;;5053482;28;20659;-55
2023/10/06 06:59:12;;;;;;;0.00;0.00;;;22.80;42.90;;;;;;5053076;28;20195;-57
2023/10/06 07:01:47;;;;;;;0.00;0.00;;;22.80;42.90;;;;;;5053182;28;20195;-57
2023/10/06 07:04:18;;;;;;;0.10;0.10;;;22.80;42.90;;;;;;5052303;28;20301;-58
2023/10/06 07:06:48;;;;;;;0.00;0.00;;;22.80;42.80;;;;;;5053118;28;20196;-57
2023/10/06 07:09:19;;;;;;;0.10;0.10;;;22.80;42.80;;;;;;5053452;28;20200;-56
2023/10/06 07:11:50;;;;;;;0.08;0.08;;;22.80;42.80;;;;;;5053405;28;20242;-57
2023/10/06 07:14:21;;;;;;;0.00;0.00;;;22.80;42.80;;;;;;5052829;28;20220;-57
2023/10/06 07:16:54;;;;;;;0.10;0.10;;;22.80;42.70;;;;;;5045051;28;20200;-55
2023/10/06 07:19:24;;;;;;;0.00;0.00;;;22.80;42.70;;;;;;5045593;28;20222;-56
2023/10/06 07:21:55;;;;;;;0.10;0.10;;;22.80;43.30;;;;;;5053855;28;20200;-58
2023/10/06 07:24:26;;;;;;;0.00;0.00;;;22.80;42.80;;;;;;5050282;28;20234;-54
2023/10/06 07:26:56;;;;;;;0.10;0.10;;;22.70;42.70;;;;;;5012878;28;20565;-52
2023/10/06 07:29:27;;;;;;;0.00;0.00;;;22.70;42.70;;;;;;5013353;28;20197;-50
2023/10/06 07:32:00;;;;;;;0.10;0.10;;;22.70;42.80;;;;;;5034253;28;20204;-58
2023/10/06 07:34:32;;;;;;;0.00;0.00;;;22.70;42.90;;;;;;5032542;28;20220;-57
2023/10/06 07:37:03;;;;;;;0.10;0.10;;;22.70;43.00;;;;;;5048235;28;20235;-57
2023/10/06 07:39:33;;;;;;;0.10;0.10;;;22.70;43.00;;;;;;5052723;28;20199;-58
2023/10/06 07:42:06;;;;;;;0.10;0.10;;;22.70;43.10;;;;;;5051485;28;20203;-57
2023/10/06 07:44:38;;;;;;;0.05;0.05;;;22.70;43.10;;;;;;5053248;28;20235;-57
2023/10/06 07:47:10;;;;;;;0.10;0.10;;;22.70;43.10;;;;;;5043461;28;20223;-57
2023/10/06 07:49:42;;;;;;;0.10;0.10;;;22.70;43.10;;;;;;5052487;28;20196;-58
2023/10/06 07:52:13;;;;;;;0.10;0.10;;;22.60;43.10;;;;;;5052424;28;20270;-55
2023/10/06 07:54:43;;;;;;;0.00;0.00;;;22.60;43.00;;;;;;5052063;28;20203;-58
2023/10/06 07:57:14;;;;;;;0.10;0.10;;;22.60;43.00;;;;;;5052464;28;20191;-54
2023/10/06 07:59:45;;;;;;;0.03;0.03;;;22.60;43.00;;;;;;5052206;28;20595;-58
2023/10/06 08:02:18;;;;;;;0.10;0.10;;;22.60;43.00;;;;;;5051476;28;20199;-58
2023/10/06 08:04:51;;;;;;;0.10;0.10;;;22.60;43.00;;;;;;5052309;28;20231;-57
2023/10/06 08:07:26;;;;;;;0.10;0.10;;;22.60;43.00;;;;;;5052064;28;20674;-58
2023/10/06 08:10:00;;;;;;;0.10;0.10;;;22.50;43.00;;;;;;5051990;28;20197;-55
2023/10/06 08:12:33;;;;;;;0.10;0.10;;;22.50;43.00;;;;;;5051998;28;20668;-57
2023/10/06 08:15:09;;;;;;;0.00;0.00;;;22.50;43.00;;;;;;5051738;28;20203;-58
2023/10/06 08:17:42;;;;;;;0.10;0.10;;;22.50;43.10;;;;;;5036479;28;20210;-58
2023/10/06 08:20:15;;;;;;;0.08;0.08;;;22.50;43.20;;;;;;5047518;28;20193;-57
2023/10/06 08:22:46;;;;;;;0.10;0.10;;;22.50;43.20;;;;;;5051963;28;20397;-57
2023/10/06 08:25:17;;;;;;;0.00;0.00;;;22.50;43.30;;;;;;5051543;28;20265;-54
2023/10/06 08:27:49;;;;;;;0.00;0.00;;;22.50;43.30;;;;;;5051709;28;20199;-50
2023/10/06 08:30:21;;;;;;;0.00;0.00;;;22.50;43.40;;;;;;5035136;28;20250;-55
2023/10/06 08:32:54;;;;;;;0.00;0.00;;;22.40;43.30;;;;;;5031631;28;20216;-57
2023/10/06 08:35:24;;;;;;;0.10;0.10;;;22.40;43.40;;;;;;5031695;28;20204;-43
2023/10/06 08:37:56;;;;;;;0.00;0.00;;;22.40;43.30;;;;;;5031565;28;20664;-52
2023/10/06 08:40:27;;;;;;;0.03;0.03;;;22.40;43.40;;;;;;5031619;28;20196;-50
2023/10/06 08:42:59;;;;;;;0.10;0.10;;;22.40;43.40;;;;;;5034368;28;20736;-45
2023/10/06 08:45:31;;;;;;;0.10;0.10;;;22.40;43.40;;;;;;5037807;28;20283;-56
2023/10/06 08:48:09;;;;;;;0.08;0.08;;;22.40;43.40;;;;;;5020400;28;20290;-56
2023/10/06 08:50:41;;;;;;;0.10;0.10;;;22.40;43.50;;;;;;5030461;28;20246;-55
2023/10/06 08:53:14;;;;;;;0.10;0.10;;;22.40;43.50;;;;;;5031544;28;20217;-49
2023/10/06 08:55:46;;;;;;;0.00;0.00;;;22.30;44.10;;;;;;5030388;28;20196;-56
2023/10/06 08:58:17;;;;;;;0.03;0.03;;;22.30;43.40;;;;;;5031075;28;20235;-56
2023/10/06 09:00:48;;;;;;;0.10;0.10;;;22.30;44.10;;;;;;5020957;28;20255;-56
2023/10/06 09:03:24;;;;;;;0.10;0.10;;;22.30;43.50;;;;;;5016040;28;20558;-57
2023/10/06 09:05:55;;;;;;;0.10;0.10;;;22.30;43.60;;;;;;5030609;28;20242;-55
2023/10/06 09:08:25;;;;;;;0.20;0.20;;;22.30;43.70;;;;;;5030702;28;20217;-57
2023/10/06 09:10:56;;;;;;;0.00;0.00;;;22.30;43.70;;;;;;5031009;28;20200;-56
2023/10/06 09:13:27;;;;;;;0.00;0.00;;;22.20;43.70;;;;;;5030713;28;20216;-57
2023/10/06 09:16:03;;;;;;;0.10;0.10;;;22.20;43.70;;;;;;5025285;28;20208;-58
2023/10/06 09:18:38;;;;;;;0.00;0.00;;;22.20;43.70;;;;;;5031155;28;20607;-55
2023/10/06 09:21:16;;;;;;;0.10;0.10;;;22.20;43.80;;;;;;5031755;28;20196;-55
2023/10/06 09:23:49;;;;;;;0.00;0.00;;;22.20;43.70;;;;;;5031046;28;20227;-56
2023/10/06 09:26:29;;;;;;;0.00;0.00;;;22.20;43.70;;;;;;5030479;28;20666;-57
2023/10/06 09:29:02;;;;;;;0.00;0.00;;;22.20;43.80;;;;;;5010940;28;20197;-57
2023/10/06 09:31:44;;;;;;;0.00;0.00;;;22.20;43.80;;;;;;5027416;28;20191;-57
2023/10/06 09:34:27;;;;;;;0.10;0.10;;;22.10;43.80;;;;;;5030365;28;20694;-57
2023/10/06 09:36:58;;;;;;;0.10;0.10;;;22.10;43.80;;;;;;5031186;28;20199;-51
2023/10/06 09:39:32;;;;;;;0.20;0.20;;;22.10;43.80;;;;;;5031300;28;20662;-53
2023/10/06 09:42:05;;;;;;;0.10;0.10;;;22.10;43.80;;;;;;5029581;28;20282;-57
2023/10/06 09:44:38;;;;;;;0.10;0.10;;;22.10;43.90;;;;;;5011172;28;20232;-57
2023/10/06 09:47:11;;;;;;;0.00;0.00;;;22.00;43.80;;;;;;5021511;28;20210;-55
2023/10/06 09:49:47;;;;;;;0.08;0.08;;;22.00;43.90;;;;;;5031343;28;20192;-55
2023/10/06 09:52:23;;;;;;;0.10;0.10;;;22.00;43.90;;;;;;5010561;28;20246;-54
2023/10/06 09:54:54;;;;;;;0.10;0.10;;;22.00;44.60;;;;;;5020101;28;20249;-55
2023/10/06 09:57:25;;;;;;;0.10;0.10;;;22.00;44.00;;;;;;5029313;28;20200;-57
2023/10/06 09:59:56;;;;;;;0.10;0.10;;;22.00;44.00;;;;;;5030587;28;20200;-56
2023/10/06 10:02:27;;;;;;;0.10;0.10;;;22.00;44.10;;;;;;5030374;28;20258;-55
2023/10/06 10:05:02;;;;;;;0.10;0.10;;;22.00;44.10;;;;;;5030428;28;20700;-51
2023/10/06 10:07:34;;;;;;;0.10;0.10;;;22.00;44.10;;;;;;5034421;28;20204;-48
2023/10/06 10:10:05;;;;;;;0.10;0.10;;;22.00;44.10;;;;;;5028183;28;20197;-53
2023/10/06 10:12:52;;;;;;;0.10;0.10;;;22.00;44.10;;;;;;5034642;28;20192;-52
2023/10/06 10:15:37;;;;;;;0.10;0.10;;;22.00;44.10;;;;;;5034037;28;20219;-53
2023/10/06 10:18:17;;;;;;;0.10;0.10;;;21.90;44.10;;;;;;5034927;28;20204;-49
2023/10/06 10:20:50;;;;;;;0.03;0.03;;;21.90;44.10;;;;;;5033912;28;20280;-54
2023/10/06 10:23:22;;;;;;;0.10;0.10;;;21.90;44.10;;;;;;5017443;28;20239;-53
2023/10/06 10:25:54;;;;;;;0.00;0.00;;;21.90;44.20;;;;;;5021851;28;20198;-52
2023/10/06 10:28:27;;;;;;;0.10;0.10;;;21.90;44.20;;;;;;5033998;28;20851;-57
2023/10/06 10:31:01;;;;;;;0.05;0.05;;;21.90;44.20;;;;;;5033956;28;20232;-50
2023/10/06 10:33:36;;;;;;;0.10;0.10;;;21.90;44.30;;;;;;5031847;28;20570;-54
2023/10/06 10:36:27;;;;;;;0.10;0.10;;;21.90;44.30;;;;;;5026724;28;20887;-52
2023/10/06 10:39:12;;;;;;;0.10;0.10;;;21.80;44.30;;;;;;5033769;28;20204;-52
2023/10/06 10:41:44;;;;;;;0.10;0.10;;;21.80;44.30;;;;;;5027927;28;20626;-57
2023/10/06 10:44:18;;;;;;;0.10;0.10;;;21.90;44.30;;;;;;5032662;28;20227;-56
2023/10/06 10:46:52;;;;;;;0.00;0.00;;;21.80;44.30;;;;;;5032263;28;20200;-46
2023/10/06 10:49:24;;;;;;;0.08;0.08;;;21.80;44.30;;;;;;5034247;28;20290;-51
2023/10/06 10:51:58;;;;;;;0.10;0.10;;;21.80;44.30;;;;;;5033792;28;20691;-50
2023/10/06 10:54:33;;;;;;;0.10;0.10;;;21.80;44.40;;;;;;5030337;28;20278;-56
2023/10/06 10:57:11;;;;;;;0.10;0.10;;;21.80;44.40;;;;;;5028754;28;20194;-54
2023/10/06 11:00:20;;;;;;;0.10;0.10;;;21.80;44.40;;;;;;5033279;28;20276;-57
2023/10/06 11:03:06;;;;;;;0.10;0.10;;;21.80;44.40;;;;;;5031324;28;20248;-57
2023/10/06 11:05:37;;;;;;;0.10;0.10;;;21.70;44.40;;;;;;5033121;28;20615;-57
2023/10/06 11:08:10;;;;;;;0.10;0.10;;;21.70;44.40;;;;;;5033262;28;20184;-58
2023/10/06 11:10:41;;;;;;;0.03;0.03;;;21.70;44.40;;;;;;5034096;28;20196;-51
2023/10/06 11:13:19;;;;;;;0.08;0.08;;;21.70;44.40;;;;;;5033573;28;20204;-54
2023/10/06 11:15:49;;;;;;;0.10;0.10;;;21.70;44.50;;;;;;5032679;28;20200;-54
2023/10/06 11:18:22;;;;;;;0.10;0.10;;;21.70;44.50;;;;;;5032233;28;20189;-55
2023/10/06 11:20:54;;;;;;;0.00;0.00;;;21.70;44.50;;;;;;5033281;28;20192;-53
2023/10/06 11:23:27;;;;;;;0.10;0.10;;;21.70;44.50;;;;;;5033231;28;20220;-52
2023/10/06 11:25:57;;;;;;;0.10;0.10;;;21.70;44.60;;;;;;5033189;28;20232;-53
2023/10/06 11:28:42;;;;;;;0.10;0.10;;;21.60;44.50;;;;;;5032398;28;20279;-50
2023/10/06 11:31:13;;;;;;;0.00;0.00;;;21.60;44.60;;;;;;5031307;28;20188;-57
2023/10/06 11:33:43;;;;;;;0.00;0.00;;;21.60;44.60;;;;;;5033166;28;20208;-54
2023/10/06 11:36:16;;;;;;;0.10;0.10;;;21.60;44.60;;;;;;5033203;28;20195;-54
2023/10/06 11:38:48;;;;;;;0.10;0.10;;;21.60;44.60;;;;;;5032794;28;20196;-54
2023/10/06 11:41:25;;;;;;;0.10;0.10;;;21.60;44.60;;;;;;5032856;28;20726;-50
2023/10/06 11:43:59;;;;;;;0.00;0.00;;;21.60;44.60;;;;;;5031328;28;20282;-53
2023/10/06 11:46:30;;;;;;;0.10;0.10;;;21.60;44.60;;;;;;5030958;28;20250;-55
2023/10/06 11:49:11;;;;;;;0.10;0.10;;;21.60;44.60;;;;;;5033061;28;20196;-53
2023/10/06 11:51:43;;;;;;;0.10;0.10;;;21.60;44.60;;;;;;5031942;28;20203;-53
2023/10/06 11:54:16;;;;;;;0.10;0.10;;;21.60;44.60;;;;;;5032456;28;20298;-56
2023/10/06 11:56:55;;;;;;;0.00;0.00;;;21.60;44.60;;;;;;5030011;28;20188;-50
2023/10/06 11:59:26;;;;;;;0.00;0.00;;;21.60;44.60;;;;;;5030256;28;20275;-56
2023/10/06 12:02:09;;;;;;;0.10;0.10;;;21.60;44.60;;;;;;5032733;28;20710;-56
2023/10/06 12:04:39;;;;;;;0.00;0.00;;;21.50;44.60;;;;;;5031856;28;20216;-55
2023/10/06 12:07:10;;;;;;;0.10;0.10;;;21.50;44.60;;;;;;5029900;28;20188;-55
2023/10/06 12:09:43;;;;;;;0.10;0.10;;;21.50;44.60;;;;;;5032371;28;20287;-50
2023/10/06 12:12:13;;;;;;;0.10;0.10;;;21.50;44.70;;;;;;5030966;28;20188;-55
2023/10/06 12:14:44;;;;;;;0.10;0.10;;;21.50;44.70;;;;;;5032155;28;20270;-56
2023/10/06 12:17:15;;;;;;;0.10;0.10;;;21.50;44.70;;;;;;5031618;28;20598;-48
2023/10/06 12:19:45;;;;;;;0.00;0.00;;;21.50;44.70;;;;;;5032161;28;20192;-55
2023/10/06 12:22:16;;;;;;;0.00;0.00;;;21.50;44.80;;;;;;5032579;28;20188;-52
2023/10/06 12:24:49;;;;;;;0.00;0.00;;;21.50;44.70;;;;;;5029879;28;20224;-52
2023/10/06 12:27:19;;;;;;;0.00;0.00;;;21.50;44.80;;;;;;5032060;28;20242;-49
2023/10/06 12:29:55;;;;;;;0.00;0.00;;;21.50;44.70;;;;;;5029635;28;20192;-51
2023/10/06 12:32:26;;;;;;;0.10;0.10;;;21.50;44.80;;;;;;5032346;28;20219;-49
2023/10/06 12:34:57;;;;;;;0.00;0.00;;;21.50;44.80;;;;;;5032613;28;20283;-56
2023/10/06 12:37:28;;;;;;;0.10;0.10;;;21.50;44.80;;;;;;5032671;28;20200;-53
2023/10/06 12:40:01;;;;;;;0.10;0.10;;;21.50;44.80;;;;;;5032483;28;20662;-50
2023/10/06 12:42:32;;;;;;;0.00;0.00;;;21.50;44.80;;;;;;5032094;28;20201;-54
2023/10/06 12:45:03;;;;;;;0.00;0.00;;;21.40;44.80;;;;;;5031617;28;20212;-52
2023/10/06 12:47:34;;;;;;;0.10;0.10;;;21.40;44.80;;;;;;5030205;28;20196;-53
2023/10/06 12:50:06;;;;;;;0.00;0.00;;;21.40;44.80;;;;;;5031912;28;20192;-51
2023/10/06 12:52:36;;;;;;;0.00;0.00;;;21.40;44.80;;;;;;5032082;28;20257;-54
2023/10/06 12:55:12;;;;;;;0.10;0.10;;;21.40;44.80;;;;;;5031803;28;20200;-52
2023/10/06 12:57:43;;;;;;;0.10;0.10;;;21.40;44.80;;;;;;5031220;28;20590;-54
2023/10/06 13:00:14;;;;;;;0.00;0.00;;;21.40;44.90;;;;;;5031254;28;20239;-51
2023/10/06 13:02:45;;;;;;;0.10;0.10;;;21.40;44.90;;;;;;5031718;28;20688;-51
2023/10/06 13:05:16;;;;;;;0.03;0.03;;;21.30;44.80;;;;;;5031713;28;20216;-54
2023/10/06 13:07:48;;;;;;;0.10;0.10;;;21.40;44.90;;;;;;5031159;28;20620;-57
2023/10/06 13:10:22;;;;;;;0.10;0.10;;;21.30;44.80;;;;;;5031399;28;20206;-55
2023/10/06 13:12:53;;;;;;;0.10;0.10;;;21.30;44.80;;;;;;5031824;28;20277;-55
2023/10/06 13:15:24;;;;;;;0.10;0.10;;;21.30;44.90;;;;;;5031077;28;20733;-55
2023/10/06 13:17:54;;;;;;;0.03;0.03;;;21.30;44.90;;;;;;5030783;28;20200;-56
2023/10/06 13:20:25;;;;;;;0.10;0.10;;;21.30;44.90;;;;;;5031345;28;20779;-56
2023/10/06 13:22:57;;;;;;;0.00;0.00;;;21.30;44.80;;;;;;5031674;28;20224;-56
2023/10/06 13:25:31;;;;;;;0.10;0.10;;;21.30;44.90;;;;;;5031252;28;20231;-55